sensor_id;sensor_type;location;lat;lon;timestamp;P1;durP1;ratioP1;P2;durP2;ratioP2
62832;SDS011;48891;49.220;6.920;2022-09-12T00:01:30;3.57;;;2.60;;
62832;SDS011;48891;49.220;6.920;2022-09-12T00:03:58;3.13;;;2.78;;
62832;SDS011;48891;49.220;6.920;2022-09-12T00:06:29;3.60;;;2.65;;
62832;SDS011;48891;49.220;6.920;2022-09-12T00:08:59;3.80;;;2.75;;
62832;SDS011;48891;49.220;6.920;2022-09-12T00:11:27;4.63;;;2.72;;
62832;SDS011;48891;49.220;6.920;2022-09-12T00:13:59;3.55;;;2.63;;
62832;SDS011;48891;49.220;6.920;2022-09-12T00:16:26;3.50;;;2.70;;
62832;SDS011;48891;49.220;6.920;2022-09-12T00:18:53;3.53;;;2.72;;
62832;SDS011;48891;49.220;6.920;2022-09-12T00:21:19;3.80;;;2.70;;
62832;SDS011;48891;49.220;6.920;2022-09-12T00:23:45;3.97;;;2.88;;
62832;SDS011;48891;49.220;6.920;2022-09-12T00:26:11;3.47;;;2.60;;
62832;SDS011;48891;49.220;6.920;2022-09-12T00:28:38;5.03;;;2.72;;
62832;SDS011;48891;49.220;6.920;2022-09-12T00:31:05;4.70;;;2.70;;
62832;SDS011;48891;49.220;6.920;2022-09-12T00:33:33;4.30;;;2.67;;
62832;SDS011;48891;49.220;6.920;2022-09-12T00:36:02;3.85;;;3.03;;
62832;SDS011;48891;49.220;6.920;2022-09-12T00:38:29;3.50;;;2.90;;
62832;SDS011;48891;49.220;6.920;2022-09-12T00:40:54;4.63;;;3.00;;
62832;SDS011;48891;49.220;6.920;2022-09-12T00:43:36;3.93;;;2.73;;
62832;SDS011;48891;49.220;6.920;2022-09-12T00:46:06;4.68;;;2.80;;
62832;SDS011;48891;49.220;6.920;2022-09-12T00:48:41;4.30;;;2.60;;
62832;SDS011;48891;49.220;6.920;2022-09-12T00:51:13;3.92;;;3.00;;
62832;SDS011;48891;49.220;6.920;2022-09-12T00:53:40;4.65;;;2.97;;
62832;SDS011;48891;49.220;6.920;2022-09-12T00:56:08;3.83;;;2.80;;
62832;SDS011;48891;49.220;6.920;2022-09-12T00:58:35;3.97;;;2.88;;
62832;SDS011;48891;49.220;6.920;2022-09-12T01:01:05;3.78;;;3.00;;
62832;SDS011;48891;49.220;6.920;2022-09-12T01:03:30;3.50;;;2.70;;
62832;SDS011;48891;49.220;6.920;2022-09-12T01:06:11;3.72;;;2.90;;
62832;SDS011;48891;49.220;6.920;2022-09-12T01:08:40;4.07;;;3.20;;
62832;SDS011;48891;49.220;6.920;2022-09-12T01:11:07;3.88;;;2.97;;
62832;SDS011;48891;49.220;6.920;2022-09-12T01:13:34;2.90;;;2.53;;
62832;SDS011;48891;49.220;6.920;2022-09-12T01:16:01;3.65;;;2.80;;
62832;SDS011;48891;49.220;6.920;2022-09-12T01:21:04;4.15;;;2.90;;
62832;SDS011;48891;49.220;6.920;2022-09-12T01:23:47;3.53;;;2.73;;
62832;SDS011;48891;49.220;6.920;2022-09-12T01:26:52;3.20;;;2.78;;
62832;SDS011;48891;49.220;6.920;2022-09-12T01:32:20;3.85;;;3.00;;
62832;SDS011;48891;49.220;6.920;2022-09-12T01:40:38;3.65;;;2.95;;
62832;SDS011;48891;49.220;6.920;2022-09-12T01:43:14;3.47;;;2.93;;
62832;SDS011;48891;49.220;6.920;2022-09-12T01:46:14;3.95;;;3.13;;
62832;SDS011;48891;49.220;6.920;2022-09-12T01:48:43;3.47;;;2.67;;
62832;SDS011;48891;49.220;6.920;2022-09-12T01:54:01;4.60;;;3.00;;
62832;SDS011;48891;49.220;6.920;2022-09-12T01:56:33;3.80;;;3.10;;
62832;SDS011;48891;49.220;6.920;2022-09-12T01:59:04;4.28;;;3.00;;
62832;SDS011;48891;49.220;6.920;2022-09-12T02:01:35;3.70;;;2.80;;
62832;SDS011;48891;49.220;6.920;2022-09-12T02:07:02;4.60;;;3.10;;
62832;SDS011;48891;49.220;6.920;2022-09-12T02:09:36;3.90;;;3.00;;
62832;SDS011;48891;49.220;6.920;2022-09-12T02:12:05;4.03;;;2.67;;
62832;SDS011;48891;49.220;6.920;2022-09-12T02:14:38;3.78;;;2.80;;
62832;SDS011;48891;49.220;6.920;2022-09-12T02:19:40;3.25;;;2.70;;
62832;SDS011;48891;49.220;6.920;2022-09-12T02:22:10;3.80;;;3.03;;
62832;SDS011;48891;49.220;6.920;2022-09-12T02:24:40;3.40;;;2.70;;
62832;SDS011;48891;49.220;6.920;2022-09-12T02:27:09;4.75;;;2.75;;
62832;SDS011;48891;49.220;6.920;2022-09-12T02:29:39;3.83;;;2.80;;
62832;SDS011;48891;49.220;6.920;2022-09-12T02:32:09;4.15;;;3.03;;
62832;SDS011;48891;49.220;6.920;2022-09-12T02:34:45;4.07;;;3.00;;
62832;SDS011;48891;49.220;6.920;2022-09-12T02:37:17;3.70;;;2.88;;
62832;SDS011;48891;49.220;6.920;2022-09-12T02:39:49;3.47;;;2.75;;
62832;SDS011;48891;49.220;6.920;2022-09-12T02:42:14;4.20;;;2.92;;
62832;SDS011;48891;49.220;6.920;2022-09-12T02:44:39;3.53;;;2.75;;
62832;SDS011;48891;49.220;6.920;2022-09-12T02:47:11;3.80;;;2.85;;
62832;SDS011;48891;49.220;6.920;2022-09-12T02:49:41;3.97;;;2.88;;
62832;SDS011;48891;49.220;6.920;2022-09-12T02:52:07;3.77;;;3.00;;
62832;SDS011;48891;49.220;6.920;2022-09-12T02:54:32;3.10;;;2.60;;
62832;SDS011;48891;49.220;6.920;2022-09-12T02:56:57;3.65;;;2.92;;
62832;SDS011;48891;49.220;6.920;2022-09-12T02:59:22;4.15;;;2.90;;
62832;SDS011;48891;49.220;6.920;2022-09-12T03:01:54;3.63;;;2.80;;
62832;SDS011;48891;49.220;6.920;2022-09-12T03:04:42;4.20;;;2.83;;
62832;SDS011;48891;49.220;6.920;2022-09-12T03:20:28;4.10;;;3.03;;
62832;SDS011;48891;49.220;6.920;2022-09-12T03:23:13;6.15;;;2.80;;
62832;SDS011;48891;49.220;6.920;2022-09-12T03:26:04;3.78;;;2.78;;
62832;SDS011;48891;49.220;6.920;2022-09-12T03:28:39;3.75;;;2.85;;
62832;SDS011;48891;49.220;6.920;2022-09-12T03:31:16;3.70;;;2.80;;
62832;SDS011;48891;49.220;6.920;2022-09-12T03:33:43;4.03;;;2.80;;
62832;SDS011;48891;49.220;6.920;2022-09-12T03:36:16;5.45;;;3.35;;
62832;SDS011;48891;49.220;6.920;2022-09-12T03:38:45;5.45;;;3.13;;
62832;SDS011;48891;49.220;6.920;2022-09-12T03:41:10;3.47;;;2.97;;
62832;SDS011;48891;49.220;6.920;2022-09-12T03:43:35;3.03;;;2.65;;
62832;SDS011;48891;49.220;6.920;2022-09-12T03:46:01;3.88;;;2.80;;
62832;SDS011;48891;49.220;6.920;2022-09-12T03:48:26;3.33;;;2.75;;
62832;SDS011;48891;49.220;6.920;2022-09-12T03:50:51;3.92;;;2.72;;
62832;SDS011;48891;49.220;6.920;2022-09-12T03:53:16;4.93;;;3.00;;
62832;SDS011;48891;49.220;6.920;2022-09-12T03:55:42;4.20;;;2.67;;
62832;SDS011;48891;49.220;6.920;2022-09-12T03:58:07;4.40;;;2.83;;
62832;SDS011;48891;49.220;6.920;2022-09-12T04:00:32;3.63;;;2.90;;
62832;SDS011;48891;49.220;6.920;2022-09-12T04:02:57;5.77;;;3.07;;
62832;SDS011;48891;49.220;6.920;2022-09-12T04:05:23;3.42;;;2.83;;
62832;SDS011;48891;49.220;6.920;2022-09-12T04:07:49;4.85;;;2.90;;
62832;SDS011;48891;49.220;6.920;2022-09-12T04:10:15;4.97;;;2.90;;
62832;SDS011;48891;49.220;6.920;2022-09-12T04:12:42;3.50;;;2.75;;
62832;SDS011;48891;49.220;6.920;2022-09-12T04:15:07;3.45;;;2.78;;
62832;SDS011;48891;49.220;6.920;2022-09-12T04:17:34;4.47;;;3.00;;
62832;SDS011;48891;49.220;6.920;2022-09-12T04:19:59;4.35;;;2.80;;
62832;SDS011;48891;49.220;6.920;2022-09-12T04:22:25;4.55;;;3.03;;
62832;SDS011;48891;49.220;6.920;2022-09-12T04:24:51;4.45;;;3.25;;
62832;SDS011;48891;49.220;6.920;2022-09-12T04:27:16;3.90;;;3.08;;
62832;SDS011;48891;49.220;6.920;2022-09-12T04:29:41;3.63;;;2.67;;
62832;SDS011;48891;49.220;6.920;2022-09-12T04:32:06;4.03;;;3.13;;
62832;SDS011;48891;49.220;6.920;2022-09-12T04:34:32;5.20;;;2.83;;
62832;SDS011;48891;49.220;6.920;2022-09-12T04:36:57;4.40;;;2.80;;
62832;SDS011;48891;49.220;6.920;2022-09-12T04:39:22;4.13;;;2.80;;
62832;SDS011;48891;49.220;6.920;2022-09-12T04:41:47;3.80;;;2.92;;
62832;SDS011;48891;49.220;6.920;2022-09-12T04:44:13;3.60;;;2.77;;
62832;SDS011;48891;49.220;6.920;2022-09-12T04:46:40;4.45;;;3.17;;
62832;SDS011;48891;49.220;6.920;2022-09-12T04:49:08;4.28;;;3.33;;
62832;SDS011;48891;49.220;6.920;2022-09-12T04:51:35;4.65;;;2.97;;
62832;SDS011;48891;49.220;6.920;2022-09-12T04:54:02;3.90;;;3.00;;
62832;SDS011;48891;49.220;6.920;2022-09-12T04:56:35;3.28;;;2.65;;
62832;SDS011;48891;49.220;6.920;2022-09-12T04:59:02;3.88;;;2.78;;
62832;SDS011;48891;49.220;6.920;2022-09-12T05:01:28;3.95;;;3.03;;
62832;SDS011;48891;49.220;6.920;2022-09-12T05:03:53;4.20;;;3.10;;
62832;SDS011;48891;49.220;6.920;2022-09-12T05:06:24;3.25;;;2.75;;
62832;SDS011;48891;49.220;6.920;2022-09-12T05:08:54;3.90;;;2.95;;
62832;SDS011;48891;49.220;6.920;2022-09-12T05:11:21;3.97;;;2.80;;
62832;SDS011;48891;49.220;6.920;2022-09-12T05:13:48;4.18;;;2.78;;
62832;SDS011;48891;49.220;6.920;2022-09-12T05:16:14;4.63;;;2.80;;
62832;SDS011;48891;49.220;6.920;2022-09-12T05:18:41;4.15;;;2.83;;
62832;SDS011;48891;49.220;6.920;2022-09-12T05:21:09;4.22;;;2.97;;
62832;SDS011;48891;49.220;6.920;2022-09-12T05:23:37;3.42;;;2.85;;
62832;SDS011;48891;49.220;6.920;2022-09-12T05:26:03;6.40;;;3.07;;
62832;SDS011;48891;49.220;6.920;2022-09-12T05:28:30;4.43;;;2.90;;
62832;SDS011;48891;49.220;6.920;2022-09-12T05:31:11;3.42;;;2.90;;
62832;SDS011;48891;49.220;6.920;2022-09-12T05:33:39;3.80;;;2.67;;
62832;SDS011;48891;49.220;6.920;2022-09-12T05:36:08;3.92;;;2.90;;
62832;SDS011;48891;49.220;6.920;2022-09-12T05:38:36;4.10;;;3.10;;
62832;SDS011;48891;49.220;6.920;2022-09-12T05:41:05;3.80;;;2.60;;
62832;SDS011;48891;49.220;6.920;2022-09-12T05:43:33;3.90;;;3.05;;
62832;SDS011;48891;49.220;6.920;2022-09-12T05:46:10;3.50;;;2.70;;
62832;SDS011;48891;49.220;6.920;2022-09-12T05:48:41;3.88;;;2.97;;
62832;SDS011;48891;49.220;6.920;2022-09-12T05:51:11;3.97;;;3.00;;
62832;SDS011;48891;49.220;6.920;2022-09-12T05:53:38;3.70;;;2.85;;
62832;SDS011;48891;49.220;6.920;2022-09-12T05:56:11;3.85;;;2.80;;
62832;SDS011;48891;49.220;6.920;2022-09-12T05:58:39;4.88;;;2.80;;
62832;SDS011;48891;49.220;6.920;2022-09-12T06:01:09;3.72;;;2.90;;
62832;SDS011;48891;49.220;6.920;2022-09-12T06:06:04;3.70;;;2.85;;
62832;SDS011;48891;49.220;6.920;2022-09-12T06:08:31;3.70;;;2.90;;
62832;SDS011;48891;49.220;6.920;2022-09-12T06:11:00;3.28;;;2.63;;
62832;SDS011;48891;49.220;6.920;2022-09-12T06:13:27;3.75;;;2.72;;
62832;SDS011;48891;49.220;6.920;2022-09-12T06:15:54;3.57;;;2.70;;
62832;SDS011;48891;49.220;6.920;2022-09-12T06:18:19;5.30;;;3.20;;
62832;SDS011;48891;49.220;6.920;2022-09-12T06:20:45;3.93;;;2.87;;
62832;SDS011;48891;49.220;6.920;2022-09-12T06:23:10;3.42;;;2.63;;
62832;SDS011;48891;49.220;6.920;2022-09-12T06:25:36;4.10;;;2.80;;
62832;SDS011;48891;49.220;6.920;2022-09-12T06:28:01;4.30;;;2.80;;
62832;SDS011;48891;49.220;6.920;2022-09-12T06:30:26;3.83;;;3.00;;
62832;SDS011;48891;49.220;6.920;2022-09-12T06:32:51;3.40;;;2.53;;
62832;SDS011;48891;49.220;6.920;2022-09-12T06:35:17;3.78;;;2.55;;
62832;SDS011;48891;49.220;6.920;2022-09-12T06:37:45;5.20;;;3.10;;
62832;SDS011;48891;49.220;6.920;2022-09-12T06:42:35;4.28;;;2.90;;
62832;SDS011;48891;49.220;6.920;2022-09-12T06:45:00;5.40;;;3.00;;
62832;SDS011;48891;49.220;6.920;2022-09-12T06:47:26;3.67;;;2.60;;
62832;SDS011;48891;49.220;6.920;2022-09-12T06:49:51;4.90;;;2.93;;
62832;SDS011;48891;49.220;6.920;2022-09-12T06:52:16;3.70;;;2.73;;
62832;SDS011;48891;49.220;6.920;2022-09-12T06:54:41;4.00;;;2.83;;
62832;SDS011;48891;49.220;6.920;2022-09-12T06:57:06;3.20;;;2.60;;
62832;SDS011;48891;49.220;6.920;2022-09-12T06:59:32;4.03;;;3.00;;
62832;SDS011;48891;49.220;6.920;2022-09-12T07:01:57;3.50;;;2.73;;
62832;SDS011;48891;49.220;6.920;2022-09-12T07:04:22;3.70;;;2.80;;
62832;SDS011;48891;49.220;6.920;2022-09-12T07:06:47;4.20;;;2.70;;
62832;SDS011;48891;49.220;6.920;2022-09-12T07:09:13;3.90;;;2.70;;
62832;SDS011;48891;49.220;6.920;2022-09-12T07:11:39;3.67;;;2.83;;
62832;SDS011;48891;49.220;6.920;2022-09-12T07:14:05;4.28;;;2.92;;
62832;SDS011;48891;49.220;6.920;2022-09-12T07:16:33;4.53;;;2.92;;
62832;SDS011;48891;49.220;6.920;2022-09-12T07:19:00;3.37;;;2.67;;
62832;SDS011;48891;49.220;6.920;2022-09-12T07:21:27;5.05;;;2.58;;
62832;SDS011;48891;49.220;6.920;2022-09-12T07:23:53;3.38;;;2.70;;
62832;SDS011;48891;49.220;6.920;2022-09-12T07:26:19;4.80;;;2.92;;
62832;SDS011;48891;49.220;6.920;2022-09-12T07:28:44;3.85;;;3.10;;
62832;SDS011;48891;49.220;6.920;2022-09-12T07:31:15;3.78;;;2.80;;
62832;SDS011;48891;49.220;6.920;2022-09-12T07:33:42;4.55;;;2.65;;
62832;SDS011;48891;49.220;6.920;2022-09-12T07:36:10;4.22;;;2.90;;
62832;SDS011;48891;49.220;6.920;2022-09-12T07:38:37;4.95;;;2.42;;
62832;SDS011;48891;49.220;6.920;2022-09-12T07:41:36;3.60;;;2.70;;
62832;SDS011;48891;49.220;6.920;2022-09-12T07:43:56;4.15;;;2.90;;
62832;SDS011;48891;49.220;6.920;2022-09-12T07:46:23;4.15;;;2.90;;
62832;SDS011;48891;49.220;6.920;2022-09-12T07:48:50;3.85;;;3.00;;
62832;SDS011;48891;49.220;6.920;2022-09-12T07:51:19;3.97;;;2.83;;
62832;SDS011;48891;49.220;6.920;2022-09-12T07:53:45;8.20;;;3.00;;
62832;SDS011;48891;49.220;6.920;2022-09-12T07:56:11;4.15;;;2.75;;
62832;SDS011;48891;49.220;6.920;2022-09-12T07:58:38;5.13;;;2.53;;
62832;SDS011;48891;49.220;6.920;2022-09-12T08:01:04;6.07;;;2.78;;
62832;SDS011;48891;49.220;6.920;2022-09-12T08:03:38;3.85;;;3.00;;
62832;SDS011;48891;49.220;6.920;2022-09-12T08:06:09;4.18;;;2.70;;
62832;SDS011;48891;49.220;6.920;2022-09-12T08:08:36;4.15;;;2.70;;
62832;SDS011;48891;49.220;6.920;2022-09-12T08:11:03;4.03;;;2.97;;
62832;SDS011;48891;49.220;6.920;2022-09-12T08:13:29;4.22;;;2.70;;
62832;SDS011;48891;49.220;6.920;2022-09-12T08:16:01;5.00;;;2.57;;
62832;SDS011;48891;49.220;6.920;2022-09-12T08:18:37;4.95;;;3.00;;
62832;SDS011;48891;49.220;6.920;2022-09-12T08:21:04;3.90;;;2.80;;
62832;SDS011;48891;49.220;6.920;2022-09-12T08:23:51;3.72;;;2.53;;
62832;SDS011;48891;49.220;6.920;2022-09-12T08:26:20;3.78;;;2.60;;
62832;SDS011;48891;49.220;6.920;2022-09-12T08:28:46;5.03;;;2.97;;
62832;SDS011;48891;49.220;6.920;2022-09-12T08:31:13;3.58;;;2.72;;
62832;SDS011;48891;49.220;6.920;2022-09-12T08:33:40;4.35;;;2.60;;
62832;SDS011;48891;49.220;6.920;2022-09-12T08:36:06;4.28;;;2.80;;
62832;SDS011;48891;49.220;6.920;2022-09-12T08:38:34;4.07;;;2.60;;
62832;SDS011;48891;49.220;6.920;2022-09-12T08:48:58;4.05;;;2.72;;
62832;SDS011;48891;49.220;6.920;2022-09-12T08:53:52;5.70;;;2.72;;
62832;SDS011;48891;49.220;6.920;2022-09-12T08:56:19;4.25;;;2.80;;
62832;SDS011;48891;49.220;6.920;2022-09-12T08:58:45;4.27;;;2.97;;
62832;SDS011;48891;49.220;6.920;2022-09-12T09:06:56;4.22;;;2.65;;
62832;SDS011;48891;49.220;6.920;2022-09-12T09:18:17;5.35;;;2.80;;
62832;SDS011;48891;49.220;6.920;2022-09-12T09:28:43;3.72;;;2.60;;
62832;SDS011;48891;49.220;6.920;2022-09-12T09:31:17;6.30;;;3.03;;
62832;SDS011;48891;49.220;6.920;2022-09-12T09:33:51;4.03;;;2.72;;
62832;SDS011;48891;49.220;6.920;2022-09-12T09:36:21;5.00;;;2.70;;
62832;SDS011;48891;49.220;6.920;2022-09-12T09:44:19;4.85;;;2.80;;
62832;SDS011;48891;49.220;6.920;2022-09-12T09:46:45;4.90;;;2.80;;
62832;SDS011;48891;49.220;6.920;2022-09-12T09:49:13;5.20;;;2.75;;
62832;SDS011;48891;49.220;6.920;2022-09-12T09:51:40;3.85;;;2.50;;
62832;SDS011;48891;49.220;6.920;2022-09-12T09:54:12;5.63;;;2.80;;
62832;SDS011;48891;49.220;6.920;2022-09-12T09:59:19;4.05;;;2.60;;
62832;SDS011;48891;49.220;6.920;2022-09-12T10:01:54;5.00;;;2.70;;
62832;SDS011;48891;49.220;6.920;2022-09-12T10:04:23;3.53;;;2.50;;
62832;SDS011;48891;49.220;6.920;2022-09-12T10:06:52;3.65;;;2.30;;
62832;SDS011;48891;49.220;6.920;2022-09-12T10:09:32;4.93;;;2.72;;
62832;SDS011;48891;49.220;6.920;2022-09-12T10:12:00;5.13;;;2.70;;
62832;SDS011;48891;49.220;6.920;2022-09-12T10:14:43;3.75;;;2.67;;
62832;SDS011;48891;49.220;6.920;2022-09-12T10:17:22;3.75;;;2.50;;
62832;SDS011;48891;49.220;6.920;2022-09-12T10:19:55;4.28;;;2.80;;
62832;SDS011;48891;49.220;6.920;2022-09-12T10:22:21;6.63;;;2.78;;
62832;SDS011;48891;49.220;6.920;2022-09-12T10:24:50;5.78;;;2.78;;
62832;SDS011;48891;49.220;6.920;2022-09-12T10:27:19;5.25;;;3.05;;
62832;SDS011;48891;49.220;6.920;2022-09-12T10:29:48;5.68;;;3.05;;
62832;SDS011;48891;49.220;6.920;2022-09-12T10:32:20;6.97;;;3.08;;
62832;SDS011;48891;49.220;6.920;2022-09-12T10:34:51;4.15;;;2.40;;
62832;SDS011;48891;49.220;6.920;2022-09-12T10:39:54;3.60;;;2.60;;
62832;SDS011;48891;49.220;6.920;2022-09-12T10:45:27;3.55;;;2.65;;
62832;SDS011;48891;49.220;6.920;2022-09-12T10:47:52;6.10;;;2.75;;
62832;SDS011;48891;49.220;6.920;2022-09-12T10:52:54;4.32;;;2.50;;
62832;SDS011;48891;49.220;6.920;2022-09-12T10:55:36;5.05;;;2.72;;
62832;SDS011;48891;49.220;6.920;2022-09-12T10:58:08;3.53;;;2.80;;
62832;SDS011;48891;49.220;6.920;2022-09-12T11:00:36;3.92;;;2.70;;
62832;SDS011;48891;49.220;6.920;2022-09-12T11:03:18;4.63;;;2.60;;
62832;SDS011;48891;49.220;6.920;2022-09-12T11:06:06;3.55;;;2.92;;
62832;SDS011;48891;49.220;6.920;2022-09-12T11:11:35;3.45;;;2.30;;
62832;SDS011;48891;49.220;6.920;2022-09-12T11:14:31;4.10;;;2.97;;
62832;SDS011;48891;49.220;6.920;2022-09-12T11:30:13;3.72;;;2.50;;
62832;SDS011;48891;49.220;6.920;2022-09-12T11:43:19;3.70;;;2.40;;
62832;SDS011;48891;49.220;6.920;2022-09-12T11:46:06;4.13;;;2.50;;
62832;SDS011;48891;49.220;6.920;2022-09-12T11:48:58;3.70;;;2.67;;
62832;SDS011;48891;49.220;6.920;2022-09-12T11:51:34;2.92;;;2.13;;
62832;SDS011;48891;49.220;6.920;2022-09-12T11:56:43;3.08;;;2.50;;
62832;SDS011;48891;49.220;6.920;2022-09-12T11:59:12;5.20;;;2.60;;
62832;SDS011;48891;49.220;6.920;2022-09-12T12:01:42;3.70;;;2.28;;
62832;SDS011;48891;49.220;6.920;2022-09-12T12:04:11;4.32;;;2.40;;
62832;SDS011;48891;49.220;6.920;2022-09-12T12:07:13;3.00;;;2.20;;
62832;SDS011;48891;49.220;6.920;2022-09-12T12:09:33;3.38;;;2.42;;
62832;SDS011;48891;49.220;6.920;2022-09-12T12:12:00;2.95;;;2.33;;
62832;SDS011;48891;49.220;6.920;2022-09-12T12:17:15;3.50;;;2.47;;
62832;SDS011;48891;49.220;6.920;2022-09-12T12:19:42;3.75;;;2.28;;
62832;SDS011;48891;49.220;6.920;2022-09-12T12:22:20;3.00;;;2.20;;
62832;SDS011;48891;49.220;6.920;2022-09-12T12:25:04;5.45;;;2.20;;
62832;SDS011;48891;49.220;6.920;2022-09-12T12:32:58;3.85;;;2.35;;
62832;SDS011;48891;49.220;6.920;2022-09-12T12:35:40;4.03;;;2.30;;
62832;SDS011;48891;49.220;6.920;2022-09-12T12:40:53;3.50;;;2.63;;
62832;SDS011;48891;49.220;6.920;2022-09-12T12:43:38;4.00;;;2.53;;
62832;SDS011;48891;49.220;6.920;2022-09-12T12:46:04;4.33;;;2.53;;
62832;SDS011;48891;49.220;6.920;2022-09-12T12:48:32;3.30;;;2.35;;
62832;SDS011;48891;49.220;6.920;2022-09-12T12:51:21;4.05;;;2.42;;
62832;SDS011;48891;49.220;6.920;2022-09-12T12:53:52;3.63;;;2.40;;
62832;SDS011;48891;49.220;6.920;2022-09-12T12:59:02;3.90;;;2.10;;
62832;SDS011;48891;49.220;6.920;2022-09-12T13:01:36;4.15;;;2.20;;
62832;SDS011;48891;49.220;6.920;2022-09-12T13:04:12;3.38;;;2.05;;
62832;SDS011;48891;49.220;6.920;2022-09-12T13:06:45;3.85;;;2.20;;
62832;SDS011;48891;49.220;6.920;2022-09-12T13:11:57;3.28;;;2.00;;
62832;SDS011;48891;49.220;6.920;2022-09-12T13:22:41;3.80;;;2.10;;
62832;SDS011;48891;49.220;6.920;2022-09-12T13:25:17;2.47;;;2.03;;
62832;SDS011;48891;49.220;6.920;2022-09-12T13:27:55;5.10;;;2.35;;
62832;SDS011;48891;49.220;6.920;2022-09-12T13:30:44;4.18;;;2.10;;
62832;SDS011;48891;49.220;6.920;2022-09-12T13:33:20;2.75;;;2.15;;
62832;SDS011;48891;49.220;6.920;2022-09-12T13:44:17;5.82;;;2.40;;
62832;SDS011;48891;49.220;6.920;2022-09-12T13:46:44;3.35;;;2.22;;
62832;SDS011;48891;49.220;6.920;2022-09-12T13:49:15;3.72;;;2.17;;
62832;SDS011;48891;49.220;6.920;2022-09-12T13:51:50;2.90;;;2.00;;
62832;SDS011;48891;49.220;6.920;2022-09-12T13:54:32;3.78;;;2.35;;
62832;SDS011;48891;49.220;6.920;2022-09-12T13:56:59;3.40;;;2.17;;
62832;SDS011;48891;49.220;6.920;2022-09-12T13:59:25;3.43;;;2.10;;
62832;SDS011;48891;49.220;6.920;2022-09-12T14:01:50;2.70;;;1.90;;
62832;SDS011;48891;49.220;6.920;2022-09-12T14:04:25;8.63;;;2.30;;
62832;SDS011;48891;49.220;6.920;2022-09-12T14:06:51;4.22;;;1.98;;
62832;SDS011;48891;49.220;6.920;2022-09-12T14:11:49;3.53;;;2.17;;
62832;SDS011;48891;49.220;6.920;2022-09-12T14:14:21;3.10;;;2.00;;
62832;SDS011;48891;49.220;6.920;2022-09-12T14:16:48;3.15;;;1.92;;
62832;SDS011;48891;49.220;6.920;2022-09-12T14:19:13;2.90;;;2.10;;
62832;SDS011;48891;49.220;6.920;2022-09-12T14:21:39;3.33;;;2.05;;
62832;SDS011;48891;49.220;6.920;2022-09-12T14:24:05;3.35;;;1.90;;
62832;SDS011;48891;49.220;6.920;2022-09-12T14:26:35;2.40;;;1.80;;
62832;SDS011;48891;49.220;6.920;2022-09-12T14:29:05;3.33;;;1.90;;
62832;SDS011;48891;49.220;6.920;2022-09-12T14:31:33;3.38;;;1.90;;
62832;SDS011;48891;49.220;6.920;2022-09-12T14:34:13;2.90;;;1.90;;
62832;SDS011;48891;49.220;6.920;2022-09-12T14:39:20;3.47;;;2.20;;
62832;SDS011;48891;49.220;6.920;2022-09-12T14:41:47;2.25;;;1.90;;
62832;SDS011;48891;49.220;6.920;2022-09-12T14:44:23;3.05;;;2.00;;
62832;SDS011;48891;49.220;6.920;2022-09-12T14:46:50;4.68;;;2.10;;
62832;SDS011;48891;49.220;6.920;2022-09-12T14:49:20;5.13;;;2.00;;
62832;SDS011;48891;49.220;6.920;2022-09-12T14:51:54;5.72;;;2.30;;
62832;SDS011;48891;49.220;6.920;2022-09-12T14:54:39;3.97;;;2.00;;
62832;SDS011;48891;49.220;6.920;2022-09-12T14:57:06;2.95;;;1.80;;
62832;SDS011;48891;49.220;6.920;2022-09-12T15:00:03;5.63;;;2.17;;
62832;SDS011;48891;49.220;6.920;2022-09-12T15:02:33;4.40;;;2.10;;
62832;SDS011;48891;49.220;6.920;2022-09-12T15:12:27;5.67;;;2.20;;
62832;SDS011;48891;49.220;6.920;2022-09-12T15:14:55;2.88;;;1.88;;
62832;SDS011;48891;49.220;6.920;2022-09-12T15:17:36;5.72;;;2.08;;
62832;SDS011;48891;49.220;6.920;2022-09-12T15:20:01;3.70;;;2.23;;
62832;SDS011;48891;49.220;6.920;2022-09-12T15:22:27;4.20;;;2.03;;
62832;SDS011;48891;49.220;6.920;2022-09-12T15:24:52;3.65;;;2.08;;
62832;SDS011;48891;49.220;6.920;2022-09-12T15:27:17;3.20;;;2.00;;
62832;SDS011;48891;49.220;6.920;2022-09-12T15:29:42;3.80;;;2.20;;
62832;SDS011;48891;49.220;6.920;2022-09-12T15:32:11;3.60;;;2.47;;
62832;SDS011;48891;49.220;6.920;2022-09-12T15:34:45;4.28;;;2.22;;
62832;SDS011;48891;49.220;6.920;2022-09-12T15:37:11;4.43;;;2.00;;
62832;SDS011;48891;49.220;6.920;2022-09-12T15:39:37;3.72;;;2.20;;
62832;SDS011;48891;49.220;6.920;2022-09-12T15:42:02;4.47;;;2.10;;
62832;SDS011;48891;49.220;6.920;2022-09-12T15:44:28;3.35;;;2.05;;
62832;SDS011;48891;49.220;6.920;2022-09-12T15:46:53;4.30;;;2.17;;
62832;SDS011;48891;49.220;6.920;2022-09-12T15:49:18;3.97;;;1.93;;
62832;SDS011;48891;49.220;6.920;2022-09-12T15:51:43;4.03;;;2.30;;
62832;SDS011;48891;49.220;6.920;2022-09-12T15:54:09;5.07;;;1.93;;
62832;SDS011;48891;49.220;6.920;2022-09-12T15:56:38;3.80;;;2.15;;
62832;SDS011;48891;49.220;6.920;2022-09-12T15:59:03;2.58;;;1.95;;
62832;SDS011;48891;49.220;6.920;2022-09-12T16:01:28;2.93;;;1.90;;
62832;SDS011;48891;49.220;6.920;2022-09-12T16:03:53;4.70;;;2.20;;
62832;SDS011;48891;49.220;6.920;2022-09-12T16:06:19;3.88;;;2.00;;
62832;SDS011;48891;49.220;6.920;2022-09-12T16:08:44;4.77;;;2.10;;
62832;SDS011;48891;49.220;6.920;2022-09-12T16:11:11;4.45;;;2.20;;
62832;SDS011;48891;49.220;6.920;2022-09-12T16:13:42;4.40;;;1.92;;
62832;SDS011;48891;49.220;6.920;2022-09-12T16:16:07;7.18;;;2.22;;
62832;SDS011;48891;49.220;6.920;2022-09-12T16:18:33;2.92;;;2.05;;
62832;SDS011;48891;49.220;6.920;2022-09-12T16:20:58;4.47;;;1.90;;
62832;SDS011;48891;49.220;6.920;2022-09-12T16:23:23;2.67;;;1.90;;
62832;SDS011;48891;49.220;6.920;2022-09-12T16:25:58;2.83;;;1.90;;
62832;SDS011;48891;49.220;6.920;2022-09-12T16:28:24;4.20;;;2.15;;
62832;SDS011;48891;49.220;6.920;2022-09-12T16:30:54;2.22;;;1.80;;
62832;SDS011;48891;49.220;6.920;2022-09-12T16:33:22;4.38;;;2.13;;
62832;SDS011;48891;49.220;6.920;2022-09-12T16:35:48;4.03;;;1.80;;
62832;SDS011;48891;49.220;6.920;2022-09-12T16:38:13;2.77;;;1.87;;
62832;SDS011;48891;49.220;6.920;2022-09-12T16:40:38;2.93;;;1.83;;
62832;SDS011;48891;49.220;6.920;2022-09-12T16:43:04;3.20;;;2.13;;
62832;SDS011;48891;49.220;6.920;2022-09-12T16:45:29;3.13;;;2.10;;
62832;SDS011;48891;49.220;6.920;2022-09-12T16:47:54;4.20;;;2.03;;
62832;SDS011;48891;49.220;6.920;2022-09-12T16:50:19;4.03;;;2.00;;
62832;SDS011;48891;49.220;6.920;2022-09-12T16:52:44;3.05;;;1.88;;
62832;SDS011;48891;49.220;6.920;2022-09-12T16:55:10;3.13;;;2.13;;
62832;SDS011;48891;49.220;6.920;2022-09-12T16:57:35;2.43;;;2.03;;
62832;SDS011;48891;49.220;6.920;2022-09-12T17:00:00;3.10;;;2.03;;
62832;SDS011;48891;49.220;6.920;2022-09-12T17:02:25;3.97;;;1.75;;
62832;SDS011;48891;49.220;6.920;2022-09-12T17:04:51;2.87;;;1.70;;
62832;SDS011;48891;49.220;6.920;2022-09-12T17:07:16;3.80;;;2.03;;
62832;SDS011;48891;49.220;6.920;2022-09-12T17:09:41;2.87;;;2.00;;
62832;SDS011;48891;49.220;6.920;2022-09-12T17:12:07;3.33;;;2.10;;
62832;SDS011;48891;49.220;6.920;2022-09-12T17:14:32;3.17;;;2.00;;
62832;SDS011;48891;49.220;6.920;2022-09-12T17:16:57;3.23;;;1.93;;
62832;SDS011;48891;49.220;6.920;2022-09-12T17:19:24;2.67;;;1.92;;
62832;SDS011;48891;49.220;6.920;2022-09-12T17:21:51;2.83;;;1.80;;
62832;SDS011;48891;49.220;6.920;2022-09-12T17:24:16;2.85;;;1.83;;
62832;SDS011;48891;49.220;6.920;2022-09-12T17:26:42;3.17;;;2.00;;
62832;SDS011;48891;49.220;6.920;2022-09-12T17:29:09;2.70;;;2.05;;
62832;SDS011;48891;49.220;6.920;2022-09-12T17:31:35;3.00;;;1.77;;
62832;SDS011;48891;49.220;6.920;2022-09-12T17:34:01;3.17;;;2.00;;
62832;SDS011;48891;49.220;6.920;2022-09-12T17:36:27;3.75;;;1.90;;
62832;SDS011;48891;49.220;6.920;2022-09-12T17:38:53;2.78;;;2.03;;
62832;SDS011;48891;49.220;6.920;2022-09-12T17:41:20;3.25;;;2.10;;
62832;SDS011;48891;49.220;6.920;2022-09-12T17:43:48;1.92;;;1.73;;